Conroe, TX

4:35 PM CDT on October 25, 2014 (GMT -0500)
Wilkinson Elementary School | Change Station
CLOSE
Current Station
Personal Weather Station
Location: Conroe, TX
Elevation: 194 ft
Nearby Weather Stations

Elev 194 ft 30.28 °N, 95.43 °W | Updated 1 minute ago

Clear
Clear
83.5 °F
Feels Like 85 °F
N
2.2
Wind Variable Wind from NW
Gusts 2.2 mph

Today
High -- | Low -- °F
--% Chance of Precip.
Yesterday
High -- | Low -- °F
Precip. -- in
7:30 AM 6:40 PM
Waxing Crescent, 4% visible
Pressure 30.10 in
Visibility 10.0 miles
Clouds Clear
Heat Index 85 °F
Dew Point 63 °F
Humidity 50%
Rainfall 0.00 in
Snow Depth Not available.
UV 3 out of 12
Pollen 4.40 out of 12
Ozone Unhealthy
PM2.5 Moderate
Flu Activity Local Activity
METAR KCXO 252053Z 31003KT 10SM CLR 29/14 A3010 RMK AO2 SLP191 T02890144 56020

More Conditions Fewer Conditions

Pressure 30.10 in
Visibility 10.0 miles
Clouds Clear
Heat Index 85 °F
Dew Point 63 °F
Humidity 50%
Rainfall 0.00 in
Snow Depth Not available.
UV 3 out of 12
Pollen 4.40 out of 12
Ozone Unhealthy
PM2.5 Moderate
Flu Activity Local Activity
METAR KCXO 252053Z 31003KT 10SM CLR 29/14 A3010 RMK AO2 SLP191 T02890144 56020

More Conditions Fewer Conditions

10-Day Weather Forecast

Almanac

Astronomy

Oct. 25, 2014 Rise Set
Actual Time 7:30 AM CDT 6:40 PM CDT
Civil Twilight 7:06 AM CDT 7:04 PM CDT
Nautical Twilight 6:38 AM CDT 7:32 PM CDT
Astronomical Twilight 6:10 AM CDT 8:00 PM CDT
Moon 9:05 AM CDT 8:10 PM CDT
Length of Visible Light 11h 58m
Length of Day
11h 09m
Tomorrow will be 1m 41s shorter.
Waxing Crescent, 4% of the Moon is Illuminated
Today
Waxing Crescent
Oct 30
First Quarter
Nov 6
Full
Nov 14
Last Quarter
Nov 22
New

Today's Extremes

State Highs State Lows

Community

WunderPhotos

Upload Photos

1,765,007 photos uploaded!

Nearby

Air Quality

  Air Quality AQ Index Pollutant
Yesterday Moderate
PM2.5
Yesterday Moderate
OZONE
Current Unhealthy
OZONE
Current Moderate
PM2.5
Saturday Unhealthy for Sensitive Groups
OZONE
Saturday Good
PM10
Sunday Moderate
OZONE
Sunday Good
PM10
Monday Good
OZONE
Monday Good
PM10
Tuesday Good
OZONE
Tuesday Good
PM10

Snow Depth

Station Depth Elevation
No new snow has been reported.

Earthquake Activity

City Distance Mag. Time & Date
No recent earthquake activity has been reported nearby.
Minimum magnitude displayed is 2.5.

Coastal Water Temperatures

Place Temperature
No Stations Reporting

Nearby Weather Stations